sensor_id;sensor_type;location;lat;lon;timestamp;P1;durP1;ratioP1;P2;durP2;ratioP2
20699;SDS011;10511;51.232;9.420;2023-09-07T00:01:34;0.70;;;0.70;;
20699;SDS011;10511;51.232;9.420;2023-09-07T00:04:01;0.70;;;0.70;;
20699;SDS011;10511;51.232;9.420;2023-09-07T00:06:29;0.70;;;0.70;;
20699;SDS011;10511;51.232;9.420;2023-09-07T00:08:56;0.60;;;0.60;;
20699;SDS011;10511;51.232;9.420;2023-09-07T00:11:22;0.70;;;0.70;;
20699;SDS011;10511;51.232;9.420;2023-09-07T00:13:49;0.70;;;0.70;;
20699;SDS011;10511;51.232;9.420;2023-09-07T00:16:18;0.70;;;0.70;;
20699;SDS011;10511;51.232;9.420;2023-09-07T00:18:45;0.70;;;0.70;;
20699;SDS011;10511;51.232;9.420;2023-09-07T00:21:12;0.60;;;0.60;;
20699;SDS011;10511;51.232;9.420;2023-09-07T00:23:39;0.70;;;0.70;;
20699;SDS011;10511;51.232;9.420;2023-09-07T00:26:06;0.70;;;0.70;;
20699;SDS011;10511;51.232;9.420;2023-09-07T00:28:33;0.60;;;0.60;;
20699;SDS011;10511;51.232;9.420;2023-09-07T00:31:00;0.70;;;0.70;;
20699;SDS011;10511;51.232;9.420;2023-09-07T00:33:29;0.70;;;0.70;;
20699;SDS011;10511;51.232;9.420;2023-09-07T00:35:56;0.70;;;0.70;;
20699;SDS011;10511;51.232;9.420;2023-09-07T00:38:23;0.70;;;0.70;;
20699;SDS011;10511;51.232;9.420;2023-09-07T00:40:50;0.70;;;0.70;;
20699;SDS011;10511;51.232;9.420;2023-09-07T00:43:17;0.70;;;0.70;;
20699;SDS011;10511;51.232;9.420;2023-09-07T00:45:43;0.70;;;0.70;;
20699;SDS011;10511;51.232;9.420;2023-09-07T00:48:11;0.60;;;0.60;;
20699;SDS011;10511;51.232;9.420;2023-09-07T00:50:40;0.70;;;0.70;;
20699;SDS011;10511;51.232;9.420;2023-09-07T00:53:08;0.70;;;0.70;;
20699;SDS011;10511;51.232;9.420;2023-09-07T00:55:37;0.57;;;0.57;;
20699;SDS011;10511;51.232;9.420;2023-09-07T00:58:04;0.60;;;0.60;;
20699;SDS011;10511;51.232;9.420;2023-09-07T01:00:31;0.60;;;0.60;;
20699;SDS011;10511;51.232;9.420;2023-09-07T01:02:58;0.60;;;0.60;;
20699;SDS011;10511;51.232;9.420;2023-09-07T01:05:27;0.60;;;0.60;;
20699;SDS011;10511;51.232;9.420;2023-09-07T01:08:03;0.70;;;0.70;;
20699;SDS011;10511;51.232;9.420;2023-09-07T01:10:36;0.60;;;0.60;;
20699;SDS011;10511;51.232;9.420;2023-09-07T01:13:03;0.70;;;0.70;;
20699;SDS011;10511;51.232;9.420;2023-09-07T01:15:30;0.60;;;0.60;;
20699;SDS011;10511;51.232;9.420;2023-09-07T01:17:57;0.70;;;0.70;;
20699;SDS011;10511;51.232;9.420;2023-09-07T01:20:25;0.70;;;0.70;;
20699;SDS011;10511;51.232;9.420;2023-09-07T01:22:54;0.70;;;0.70;;
20699;SDS011;10511;51.232;9.420;2023-09-07T01:25:22;0.70;;;0.70;;
20699;SDS011;10511;51.232;9.420;2023-09-07T01:27:50;0.60;;;0.60;;
20699;SDS011;10511;51.232;9.420;2023-09-07T01:30:17;0.60;;;0.60;;
20699;SDS011;10511;51.232;9.420;2023-09-07T01:32:44;0.60;;;0.60;;
20699;SDS011;10511;51.232;9.420;2023-09-07T01:35:11;0.70;;;0.70;;
20699;SDS011;10511;51.232;9.420;2023-09-07T01:37:43;0.60;;;0.60;;
20699;SDS011;10511;51.232;9.420;2023-09-07T01:40:11;0.60;;;0.60;;
20699;SDS011;10511;51.232;9.420;2023-09-07T01:42:38;0.60;;;0.60;;
20699;SDS011;10511;51.232;9.420;2023-09-07T01:45:06;0.60;;;0.60;;
20699;SDS011;10511;51.232;9.420;2023-09-07T01:47:34;0.70;;;0.70;;
20699;SDS011;10511;51.232;9.420;2023-09-07T01:50:01;0.70;;;0.70;;
20699;SDS011;10511;51.232;9.420;2023-09-07T01:52:28;0.70;;;0.70;;
20699;SDS011;10511;51.232;9.420;2023-09-07T01:54:56;0.60;;;0.60;;
20699;SDS011;10511;51.232;9.420;2023-09-07T01:57:24;0.60;;;0.60;;
20699;SDS011;10511;51.232;9.420;2023-09-07T01:59:51;0.60;;;0.60;;
20699;SDS011;10511;51.232;9.420;2023-09-07T02:02:18;0.60;;;0.60;;
20699;SDS011;10511;51.232;9.420;2023-09-07T02:04:45;0.70;;;0.70;;
20699;SDS011;10511;51.232;9.420;2023-09-07T02:07:12;0.60;;;0.60;;
20699;SDS011;10511;51.232;9.420;2023-09-07T02:09:40;0.80;;;0.80;;
20699;SDS011;10511;51.232;9.420;2023-09-07T02:12:07;0.70;;;0.70;;
20699;SDS011;10511;51.232;9.420;2023-09-07T02:14:37;0.67;;;0.67;;
20699;SDS011;10511;51.232;9.420;2023-09-07T02:17:04;0.60;;;0.60;;
20699;SDS011;10511;51.232;9.420;2023-09-07T02:19:31;0.70;;;0.70;;
20699;SDS011;10511;51.232;9.420;2023-09-07T02:21:58;0.70;;;0.70;;
20699;SDS011;10511;51.232;9.420;2023-09-07T02:24:25;0.80;;;0.80;;
20699;SDS011;10511;51.232;9.420;2023-09-07T02:26:52;0.70;;;0.70;;
20699;SDS011;10511;51.232;9.420;2023-09-07T02:29:19;0.73;;;0.73;;
20699;SDS011;10511;51.232;9.420;2023-09-07T02:31:47;0.60;;;0.60;;
20699;SDS011;10511;51.232;9.420;2023-09-07T02:34:14;0.70;;;0.70;;
20699;SDS011;10511;51.232;9.420;2023-09-07T02:36:41;0.70;;;0.70;;
20699;SDS011;10511;51.232;9.420;2023-09-07T02:39:08;0.70;;;0.70;;
20699;SDS011;10511;51.232;9.420;2023-09-07T02:41:36;0.80;;;0.80;;
20699;SDS011;10511;51.232;9.420;2023-09-07T02:44:04;0.60;;;0.60;;
20699;SDS011;10511;51.232;9.420;2023-09-07T02:46:31;0.70;;;0.70;;
20699;SDS011;10511;51.232;9.420;2023-09-07T02:48:59;0.60;;;0.60;;
20699;SDS011;10511;51.232;9.420;2023-09-07T02:51:26;0.70;;;0.70;;
20699;SDS011;10511;51.232;9.420;2023-09-07T02:53:53;0.70;;;0.70;;
20699;SDS011;10511;51.232;9.420;2023-09-07T02:56:22;0.70;;;0.70;;
20699;SDS011;10511;51.232;9.420;2023-09-07T02:58:49;0.60;;;0.60;;
20699;SDS011;10511;51.232;9.420;2023-09-07T03:01:16;0.70;;;0.70;;
20699;SDS011;10511;51.232;9.420;2023-09-07T03:03:46;0.60;;;0.60;;
20699;SDS011;10511;51.232;9.420;2023-09-07T03:06:15;0.70;;;0.70;;
20699;SDS011;10511;51.232;9.420;2023-09-07T03:08:42;0.70;;;0.70;;
20699;SDS011;10511;51.232;9.420;2023-09-07T03:11:09;0.70;;;0.70;;
20699;SDS011;10511;51.232;9.420;2023-09-07T03:13:37;0.60;;;0.60;;
20699;SDS011;10511;51.232;9.420;2023-09-07T03:16:04;0.60;;;0.60;;
20699;SDS011;10511;51.232;9.420;2023-09-07T03:18:31;0.70;;;0.70;;
20699;SDS011;10511;51.232;9.420;2023-09-07T03:20:59;0.60;;;0.60;;
20699;SDS011;10511;51.232;9.420;2023-09-07T03:23:29;0.60;;;0.60;;
20699;SDS011;10511;51.232;9.420;2023-09-07T03:25:57;0.70;;;0.70;;
20699;SDS011;10511;51.232;9.420;2023-09-07T03:28:25;0.70;;;0.70;;
20699;SDS011;10511;51.232;9.420;2023-09-07T03:30:53;0.80;;;0.80;;
20699;SDS011;10511;51.232;9.420;2023-09-07T03:33:20;0.70;;;0.70;;
20699;SDS011;10511;51.232;9.420;2023-09-07T03:35:47;0.70;;;0.70;;
20699;SDS011;10511;51.232;9.420;2023-09-07T03:38:14;0.70;;;0.70;;
20699;SDS011;10511;51.232;9.420;2023-09-07T03:40:42;0.70;;;0.70;;
20699;SDS011;10511;51.232;9.420;2023-09-07T03:43:09;0.70;;;0.70;;
20699;SDS011;10511;51.232;9.420;2023-09-07T03:45:36;0.70;;;0.70;;
20699;SDS011;10511;51.232;9.420;2023-09-07T03:48:03;0.70;;;0.70;;
20699;SDS011;10511;51.232;9.420;2023-09-07T03:50:31;0.70;;;0.70;;
20699;SDS011;10511;51.232;9.420;2023-09-07T03:52:58;0.70;;;0.70;;
20699;SDS011;10511;51.232;9.420;2023-09-07T03:55:25;0.70;;;0.70;;
20699;SDS011;10511;51.232;9.420;2023-09-07T03:57:53;0.70;;;0.70;;
20699;SDS011;10511;51.232;9.420;2023-09-07T04:00:20;0.70;;;0.70;;
20699;SDS011;10511;51.232;9.420;2023-09-07T04:02:49;0.60;;;0.60;;
20699;SDS011;10511;51.232;9.420;2023-09-07T04:05:16;0.70;;;0.70;;
20699;SDS011;10511;51.232;9.420;2023-09-07T04:07:43;0.70;;;0.70;;
20699;SDS011;10511;51.232;9.420;2023-09-07T04:10:11;0.70;;;0.70;;
20699;SDS011;10511;51.232;9.420;2023-09-07T04:12:38;0.60;;;0.60;;
20699;SDS011;10511;51.232;9.420;2023-09-07T04:15:07;0.70;;;0.70;;
20699;SDS011;10511;51.232;9.420;2023-09-07T04:17:35;0.70;;;0.70;;
20699;SDS011;10511;51.232;9.420;2023-09-07T04:20:06;0.70;;;0.70;;
20699;SDS011;10511;51.232;9.420;2023-09-07T04:22:35;0.70;;;0.70;;
20699;SDS011;10511;51.232;9.420;2023-09-07T04:25:02;0.70;;;0.70;;
20699;SDS011;10511;51.232;9.420;2023-09-07T04:27:30;0.60;;;0.60;;
20699;SDS011;10511;51.232;9.420;2023-09-07T04:29:57;0.60;;;0.60;;
20699;SDS011;10511;51.232;9.420;2023-09-07T04:32:25;0.70;;;0.70;;
20699;SDS011;10511;51.232;9.420;2023-09-07T04:34:53;0.70;;;0.70;;
20699;SDS011;10511;51.232;9.420;2023-09-07T04:37:21;0.80;;;0.80;;
20699;SDS011;10511;51.232;9.420;2023-09-07T04:39:50;0.70;;;0.70;;
20699;SDS011;10511;51.232;9.420;2023-09-07T04:42:18;0.70;;;0.70;;
20699;SDS011;10511;51.232;9.420;2023-09-07T04:44:46;0.70;;;0.70;;
20699;SDS011;10511;51.232;9.420;2023-09-07T04:47:13;0.70;;;0.70;;
20699;SDS011;10511;51.232;9.420;2023-09-07T04:49:42;0.70;;;0.70;;
20699;SDS011;10511;51.232;9.420;2023-09-07T04:52:09;0.77;;;0.77;;
20699;SDS011;10511;51.232;9.420;2023-09-07T04:54:35;0.80;;;0.80;;
20699;SDS011;10511;51.232;9.420;2023-09-07T04:57:03;0.70;;;0.70;;
20699;SDS011;10511;51.232;9.420;2023-09-07T04:59:30;0.70;;;0.70;;
20699;SDS011;10511;51.232;9.420;2023-09-07T05:01:58;0.70;;;0.70;;
20699;SDS011;10511;51.232;9.420;2023-09-07T05:04:26;0.70;;;0.70;;
20699;SDS011;10511;51.232;9.420;2023-09-07T05:06:56;0.80;;;0.80;;
20699;SDS011;10511;51.232;9.420;2023-09-07T05:09:23;0.80;;;0.80;;
20699;SDS011;10511;51.232;9.420;2023-09-07T05:11:50;0.70;;;0.70;;
20699;SDS011;10511;51.232;9.420;2023-09-07T05:14:18;0.70;;;0.70;;
20699;SDS011;10511;51.232;9.420;2023-09-07T05:16:45;0.80;;;0.80;;
20699;SDS011;10511;51.232;9.420;2023-09-07T05:19:12;0.70;;;0.70;;
20699;SDS011;10511;51.232;9.420;2023-09-07T05:21:40;0.70;;;0.70;;
20699;SDS011;10511;51.232;9.420;2023-09-07T05:24:08;0.70;;;0.70;;
20699;SDS011;10511;51.232;9.420;2023-09-07T05:26:35;0.70;;;0.70;;
20699;SDS011;10511;51.232;9.420;2023-09-07T05:29:02;0.70;;;0.70;;
20699;SDS011;10511;51.232;9.420;2023-09-07T05:31:29;0.60;;;0.60;;
20699;SDS011;10511;51.232;9.420;2023-09-07T05:33:56;0.80;;;0.80;;
20699;SDS011;10511;51.232;9.420;2023-09-07T05:36:23;0.70;;;0.70;;
20699;SDS011;10511;51.232;9.420;2023-09-07T05:38:50;0.70;;;0.70;;
20699;SDS011;10511;51.232;9.420;2023-09-07T05:41:18;0.70;;;0.70;;
20699;SDS011;10511;51.232;9.420;2023-09-07T05:43:45;0.60;;;0.60;;
20699;SDS011;10511;51.232;9.420;2023-09-07T05:46:14;0.70;;;0.70;;
20699;SDS011;10511;51.232;9.420;2023-09-07T05:48:41;0.70;;;0.70;;
20699;SDS011;10511;51.232;9.420;2023-09-07T05:51:08;0.60;;;0.60;;
20699;SDS011;10511;51.232;9.420;2023-09-07T05:53:35;0.70;;;0.70;;
20699;SDS011;10511;51.232;9.420;2023-09-07T05:56:02;0.60;;;0.60;;
20699;SDS011;10511;51.232;9.420;2023-09-07T05:58:30;0.70;;;0.70;;
20699;SDS011;10511;51.232;9.420;2023-09-07T06:00:57;0.70;;;0.70;;
20699;SDS011;10511;51.232;9.420;2023-09-07T06:03:24;0.70;;;0.70;;
20699;SDS011;10511;51.232;9.420;2023-09-07T06:05:51;0.60;;;0.60;;
20699;SDS011;10511;51.232;9.420;2023-09-07T06:08:18;0.77;;;0.77;;
20699;SDS011;10511;51.232;9.420;2023-09-07T06:10:45;0.70;;;0.70;;
20699;SDS011;10511;51.232;9.420;2023-09-07T06:13:12;0.70;;;0.70;;
20699;SDS011;10511;51.232;9.420;2023-09-07T06:15:41;0.70;;;0.70;;
20699;SDS011;10511;51.232;9.420;2023-09-07T06:18:08;0.70;;;0.70;;
20699;SDS011;10511;51.232;9.420;2023-09-07T06:20:35;0.70;;;0.70;;
20699;SDS011;10511;51.232;9.420;2023-09-07T06:23:02;0.70;;;0.70;;
20699;SDS011;10511;51.232;9.420;2023-09-07T06:25:29;0.80;;;0.80;;
20699;SDS011;10511;51.232;9.420;2023-09-07T06:27:56;0.70;;;0.70;;
20699;SDS011;10511;51.232;9.420;2023-09-07T06:30:23;0.70;;;0.70;;
20699;SDS011;10511;51.232;9.420;2023-09-07T06:32:51;0.70;;;0.70;;
20699;SDS011;10511;51.232;9.420;2023-09-07T06:35:18;0.80;;;0.80;;
20699;SDS011;10511;51.232;9.420;2023-09-07T06:37:45;0.70;;;0.70;;
20699;SDS011;10511;51.232;9.420;2023-09-07T06:40:12;0.70;;;0.70;;
20699;SDS011;10511;51.232;9.420;2023-09-07T06:42:40;0.70;;;0.70;;
20699;SDS011;10511;51.232;9.420;2023-09-07T06:45:08;0.70;;;0.70;;
20699;SDS011;10511;51.232;9.420;2023-09-07T06:47:35;0.70;;;0.70;;
20699;SDS011;10511;51.232;9.420;2023-09-07T06:50:04;0.60;;;0.60;;
20699;SDS011;10511;51.232;9.420;2023-09-07T06:52:32;0.70;;;0.70;;
20699;SDS011;10511;51.232;9.420;2023-09-07T06:54:58;0.60;;;0.60;;
20699;SDS011;10511;51.232;9.420;2023-09-07T06:57:25;0.60;;;0.60;;
20699;SDS011;10511;51.232;9.420;2023-09-07T06:59:52;0.60;;;0.60;;
20699;SDS011;10511;51.232;9.420;2023-09-07T07:02:19;0.70;;;0.70;;
20699;SDS011;10511;51.232;9.420;2023-09-07T07:04:46;0.60;;;0.60;;
20699;SDS011;10511;51.232;9.420;2023-09-07T07:07:15;0.70;;;0.70;;
20699;SDS011;10511;51.232;9.420;2023-09-07T07:09:41;0.60;;;0.60;;
20699;SDS011;10511;51.232;9.420;2023-09-07T07:12:08;0.60;;;0.60;;
20699;SDS011;10511;51.232;9.420;2023-09-07T07:14:35;0.70;;;0.70;;
20699;SDS011;10511;51.232;9.420;2023-09-07T07:17:02;0.70;;;0.70;;
20699;SDS011;10511;51.232;9.420;2023-09-07T07:19:30;0.70;;;0.70;;
20699;SDS011;10511;51.232;9.420;2023-09-07T07:21:57;0.60;;;0.60;;
20699;SDS011;10511;51.232;9.420;2023-09-07T07:24:25;0.60;;;0.60;;
20699;SDS011;10511;51.232;9.420;2023-09-07T07:26:52;0.60;;;0.60;;
20699;SDS011;10511;51.232;9.420;2023-09-07T07:29:19;0.60;;;0.60;;
20699;SDS011;10511;51.232;9.420;2023-09-07T07:31:46;0.70;;;0.70;;
20699;SDS011;10511;51.232;9.420;2023-09-07T07:34:13;0.60;;;0.60;;
20699;SDS011;10511;51.232;9.420;2023-09-07T07:36:40;0.60;;;0.60;;
20699;SDS011;10511;51.232;9.420;2023-09-07T07:39:07;0.60;;;0.60;;
20699;SDS011;10511;51.232;9.420;2023-09-07T07:41:35;0.60;;;0.60;;
20699;SDS011;10511;51.232;9.420;2023-09-07T07:44:03;0.70;;;0.70;;
20699;SDS011;10511;51.232;9.420;2023-09-07T07:46:30;0.60;;;0.60;;
20699;SDS011;10511;51.232;9.420;2023-09-07T07:48:57;0.60;;;0.60;;
20699;SDS011;10511;51.232;9.420;2023-09-07T07:51:24;0.60;;;0.60;;
20699;SDS011;10511;51.232;9.420;2023-09-07T07:53:53;0.60;;;0.60;;
20699;SDS011;10511;51.232;9.420;2023-09-07T07:56:21;0.60;;;0.60;;
20699;SDS011;10511;51.232;9.420;2023-09-07T07:58:49;0.60;;;0.60;;
20699;SDS011;10511;51.232;9.420;2023-09-07T08:01:17;0.60;;;0.60;;
20699;SDS011;10511;51.232;9.420;2023-09-07T08:03:45;0.67;;;0.67;;
20699;SDS011;10511;51.232;9.420;2023-09-07T08:06:12;0.70;;;0.70;;
20699;SDS011;10511;51.232;9.420;2023-09-07T08:08:39;0.60;;;0.60;;
20699;SDS011;10511;51.232;9.420;2023-09-07T08:11:06;0.60;;;0.60;;
20699;SDS011;10511;51.232;9.420;2023-09-07T08:13:34;0.60;;;0.60;;
20699;SDS011;10511;51.232;9.420;2023-09-07T08:16:03;0.60;;;0.60;;
20699;SDS011;10511;51.232;9.420;2023-09-07T08:18:32;0.60;;;0.60;;
20699;SDS011;10511;51.232;9.420;2023-09-07T08:20:59;0.60;;;0.60;;
20699;SDS011;10511;51.232;9.420;2023-09-07T08:23:27;0.60;;;0.60;;
20699;SDS011;10511;51.232;9.420;2023-09-07T08:25:53;0.50;;;0.50;;
20699;SDS011;10511;51.232;9.420;2023-09-07T08:28:20;0.60;;;0.60;;
20699;SDS011;10511;51.232;9.420;2023-09-07T08:30:48;0.60;;;0.60;;
20699;SDS011;10511;51.232;9.420;2023-09-07T08:33:19;0.57;;;0.57;;
20699;SDS011;10511;51.232;9.420;2023-09-07T08:35:51;0.50;;;0.50;;
20699;SDS011;10511;51.232;9.420;2023-09-07T08:38:20;0.60;;;0.60;;
20699;SDS011;10511;51.232;9.420;2023-09-07T08:40:50;0.50;;;0.50;;
20699;SDS011;10511;51.232;9.420;2023-09-07T08:43:17;0.60;;;0.60;;
20699;SDS011;10511;51.232;9.420;2023-09-07T08:45:46;0.60;;;0.60;;
20699;SDS011;10511;51.232;9.420;2023-09-07T08:48:20;0.50;;;0.50;;
20699;SDS011;10511;51.232;9.420;2023-09-07T08:50:48;0.50;;;0.50;;
20699;SDS011;10511;51.232;9.420;2023-09-07T08:53:17;0.50;;;0.50;;
20699;SDS011;10511;51.232;9.420;2023-09-07T08:55:45;0.60;;;0.60;;
20699;SDS011;10511;51.232;9.420;2023-09-07T08:58:12;0.50;;;0.50;;
20699;SDS011;10511;51.232;9.420;2023-09-07T09:00:40;0.60;;;0.60;;
20699;SDS011;10511;51.232;9.420;2023-09-07T09:03:09;0.50;;;0.50;;
20699;SDS011;10511;51.232;9.420;2023-09-07T09:05:39;0.60;;;0.60;;
20699;SDS011;10511;51.232;9.420;2023-09-07T09:08:06;0.50;;;0.50;;
20699;SDS011;10511;51.232;9.420;2023-09-07T09:10:34;0.50;;;0.50;;
20699;SDS011;10511;51.232;9.420;2023-09-07T09:13:04;0.50;;;0.50;;
20699;SDS011;10511;51.232;9.420;2023-09-07T09:15:31;0.50;;;0.50;;
20699;SDS011;10511;51.232;9.420;2023-09-07T09:17:58;0.50;;;0.50;;
20699;SDS011;10511;51.232;9.420;2023-09-07T09:20:34;0.50;;;0.50;;
20699;SDS011;10511;51.232;9.420;2023-09-07T09:23:04;0.50;;;0.50;;
20699;SDS011;10511;51.232;9.420;2023-09-07T09:25:32;0.50;;;0.50;;
20699;SDS011;10511;51.232;9.420;2023-09-07T09:27:59;0.57;;;0.57;;
20699;SDS011;10511;51.232;9.420;2023-09-07T09:30:26;0.50;;;0.50;;
20699;SDS011;10511;51.232;9.420;2023-09-07T09:32:53;0.47;;;0.47;;
20699;SDS011;10511;51.232;9.420;2023-09-07T09:35:20;0.50;;;0.50;;
20699;SDS011;10511;51.232;9.420;2023-09-07T09:37:49;0.50;;;0.50;;
20699;SDS011;10511;51.232;9.420;2023-09-07T09:40:18;0.50;;;0.50;;
20699;SDS011;10511;51.232;9.420;2023-09-07T09:42:45;0.50;;;0.50;;
20699;SDS011;10511;51.232;9.420;2023-09-07T09:45:12;0.50;;;0.50;;
20699;SDS011;10511;51.232;9.420;2023-09-07T09:47:40;0.40;;;0.40;;
20699;SDS011;10511;51.232;9.420;2023-09-07T09:50:08;0.40;;;0.40;;
20699;SDS011;10511;51.232;9.420;2023-09-07T09:52:36;0.50;;;0.50;;
20699;SDS011;10511;51.232;9.420;2023-09-07T09:55:05;0.50;;;0.50;;
20699;SDS011;10511;51.232;9.420;2023-09-07T09:57:35;0.50;;;0.50;;
20699;SDS011;10511;51.232;9.420;2023-09-07T10:00:03;0.40;;;0.40;;
20699;SDS011;10511;51.232;9.420;2023-09-07T10:02:51;0.50;;;0.50;;
20699;SDS011;10511;51.232;9.420;2023-09-07T10:05:24;0.40;;;0.40;;
20699;SDS011;10511;51.232;9.420;2023-09-07T10:07:52;0.47;;;0.47;;
20699;SDS011;10511;51.232;9.420;2023-09-07T10:10:19;0.47;;;0.47;;
20699;SDS011;10511;51.232;9.420;2023-09-07T10:12:52;0.50;;;0.50;;
20699;SDS011;10511;51.232;9.420;2023-09-07T10:15:20;0.40;;;0.40;;
20699;SDS011;10511;51.232;9.420;2023-09-07T10:17:48;0.40;;;0.40;;
20699;SDS011;10511;51.232;9.420;2023-09-07T10:20:18;0.40;;;0.40;;
20699;SDS011;10511;51.232;9.420;2023-09-07T10:22:48;0.40;;;0.40;;
20699;SDS011;10511;51.232;9.420;2023-09-07T10:25:19;0.40;;;0.40;;
20699;SDS011;10511;51.232;9.420;2023-09-07T10:27:47;0.40;;;0.40;;
20699;SDS011;10511;51.232;9.420;2023-09-07T10:30:15;0.40;;;0.40;;
20699;SDS011;10511;51.232;9.420;2023-09-07T10:32:47;0.40;;;0.40;;
20699;SDS011;10511;51.232;9.420;2023-09-07T10:35:14;0.40;;;0.40;;
20699;SDS011;10511;51.232;9.420;2023-09-07T10:37:43;0.40;;;0.40;;
20699;SDS011;10511;51.232;9.420;2023-09-07T10:40:11;0.40;;;0.40;;
20699;SDS011;10511;51.232;9.420;2023-09-07T10:42:41;0.40;;;0.40;;
20699;SDS011;10511;51.232;9.420;2023-09-07T10:45:08;0.40;;;0.40;;
20699;SDS011;10511;51.232;9.420;2023-09-07T10:47:41;0.40;;;0.40;;
20699;SDS011;10511;51.232;9.420;2023-09-07T10:50:10;0.40;;;0.40;;
20699;SDS011;10511;51.232;9.420;2023-09-07T10:52:39;0.40;;;0.40;;
20699;SDS011;10511;51.232;9.420;2023-09-07T10:55:07;0.40;;;0.40;;
20699;SDS011;10511;51.232;9.420;2023-09-07T10:57:45;0.40;;;0.40;;
20699;SDS011;10511;51.232;9.420;2023-09-07T11:00:13;0.40;;;0.40;;
20699;SDS011;10511;51.232;9.420;2023-09-07T11:02:43;0.50;;;0.50;;
20699;SDS011;10511;51.232;9.420;2023-09-07T11:05:10;0.40;;;0.40;;
20699;SDS011;10511;51.232;9.420;2023-09-07T11:07:37;0.40;;;0.40;;
20699;SDS011;10511;51.232;9.420;2023-09-07T11:10:09;0.40;;;0.40;;
20699;SDS011;10511;51.232;9.420;2023-09-07T11:12:36;0.50;;;0.50;;
20699;SDS011;10511;51.232;9.420;2023-09-07T11:15:04;0.40;;;0.40;;
20699;SDS011;10511;51.232;9.420;2023-09-07T11:17:36;0.40;;;0.40;;
20699;SDS011;10511;51.232;9.420;2023-09-07T11:20:07;0.40;;;0.40;;
20699;SDS011;10511;51.232;9.420;2023-09-07T11:22:35;0.40;;;0.40;;
20699;SDS011;10511;51.232;9.420;2023-09-07T11:25:04;0.40;;;0.40;;
20699;SDS011;10511;51.232;9.420;2023-09-07T11:27:31;0.40;;;0.40;;
20699;SDS011;10511;51.232;9.420;2023-09-07T11:29:58;0.40;;;0.40;;
20699;SDS011;10511;51.232;9.420;2023-09-07T11:32:32;0.40;;;0.40;;
20699;SDS011;10511;51.232;9.420;2023-09-07T11:35:00;0.40;;;0.40;;
20699;SDS011;10511;51.232;9.420;2023-09-07T11:37:28;0.40;;;0.40;;
20699;SDS011;10511;51.232;9.420;2023-09-07T11:39:55;0.40;;;0.40;;
20699;SDS011;10511;51.232;9.420;2023-09-07T11:42:22;0.40;;;0.40;;
20699;SDS011;10511;51.232;9.420;2023-09-07T11:44:49;0.50;;;0.50;;
20699;SDS011;10511;51.232;9.420;2023-09-07T11:47:16;0.40;;;0.40;;
20699;SDS011;10511;51.232;9.420;2023-09-07T11:49:43;0.40;;;0.40;;
20699;SDS011;10511;51.232;9.420;2023-09-07T11:52:10;0.40;;;0.40;;
20699;SDS011;10511;51.232;9.420;2023-09-07T11:54:38;0.40;;;0.40;;
20699;SDS011;10511;51.232;9.420;2023-09-07T11:57:05;0.40;;;0.40;;
20699;SDS011;10511;51.232;9.420;2023-09-07T11:59:32;0.47;;;0.47;;
20699;SDS011;10511;51.232;9.420;2023-09-07T12:01:59;0.40;;;0.40;;
20699;SDS011;10511;51.232;9.420;2023-09-07T12:04:26;0.40;;;0.40;;
20699;SDS011;10511;51.232;9.420;2023-09-07T12:06:53;0.40;;;0.40;;
20699;SDS011;10511;51.232;9.420;2023-09-07T12:09:20;0.40;;;0.40;;
20699;SDS011;10511;51.232;9.420;2023-09-07T12:11:49;0.40;;;0.40;;
20699;SDS011;10511;51.232;9.420;2023-09-07T12:14:16;0.40;;;0.40;;
20699;SDS011;10511;51.232;9.420;2023-09-07T12:16:43;0.40;;;0.40;;
20699;SDS011;10511;51.232;9.420;2023-09-07T12:19:10;0.40;;;0.40;;
20699;SDS011;10511;51.232;9.420;2023-09-07T12:21:37;0.40;;;0.40;;
20699;SDS011;10511;51.232;9.420;2023-09-07T12:24:04;0.40;;;0.40;;
20699;SDS011;10511;51.232;9.420;2023-09-07T12:26:31;0.40;;;0.40;;
20699;SDS011;10511;51.232;9.420;2023-09-07T12:29:00;0.40;;;0.40;;
20699;SDS011;10511;51.232;9.420;2023-09-07T12:31:27;0.40;;;0.40;;
20699;SDS011;10511;51.232;9.420;2023-09-07T12:33:54;0.40;;;0.40;;
20699;SDS011;10511;51.232;9.420;2023-09-07T12:36:21;0.40;;;0.40;;
20699;SDS011;10511;51.232;9.420;2023-09-07T12:38:48;0.40;;;0.40;;
20699;SDS011;10511;51.232;9.420;2023-09-07T12:41:15;0.40;;;0.40;;
20699;SDS011;10511;51.232;9.420;2023-09-07T12:43:42;0.40;;;0.40;;
20699;SDS011;10511;51.232;9.420;2023-09-07T12:46:10;0.40;;;0.40;;
20699;SDS011;10511;51.232;9.420;2023-09-07T12:48:37;0.40;;;0.40;;
20699;SDS011;10511;51.232;9.420;2023-09-07T12:51:04;0.40;;;0.40;;
20699;SDS011;10511;51.232;9.420;2023-09-07T12:53:31;0.40;;;0.40;;
20699;SDS011;10511;51.232;9.420;2023-09-07T12:55:58;0.40;;;0.40;;
20699;SDS011;10511;51.232;9.420;2023-09-07T12:58:26;0.40;;;0.40;;
20699;SDS011;10511;51.232;9.420;2023-09-07T13:00:53;0.40;;;0.40;;
20699;SDS011;10511;51.232;9.420;2023-09-07T13:03:21;0.40;;;0.40;;
20699;SDS011;10511;51.232;9.420;2023-09-07T13:05:48;0.40;;;0.40;;
20699;SDS011;10511;51.232;9.420;2023-09-07T13:08:15;0.40;;;0.40;;
20699;SDS011;10511;51.232;9.420;2023-09-07T13:10:42;0.40;;;0.40;;
20699;SDS011;10511;51.232;9.420;2023-09-07T13:13:09;0.40;;;0.40;;
20699;SDS011;10511;51.232;9.420;2023-09-07T13:15:36;0.40;;;0.40;;
20699;SDS011;10511;51.232;9.420;2023-09-07T13:18:03;0.40;;;0.40;;
20699;SDS011;10511;51.232;9.420;2023-09-07T13:20:32;0.40;;;0.40;;
20699;SDS011;10511;51.232;9.420;2023-09-07T13:22:59;0.40;;;0.40;;
20699;SDS011;10511;51.232;9.420;2023-09-07T13:25:26;0.40;;;0.40;;
20699;SDS011;10511;51.232;9.420;2023-09-07T13:27:53;0.40;;;0.40;;
20699;SDS011;10511;51.232;9.420;2023-09-07T13:30:20;0.40;;;0.40;;
20699;SDS011;10511;51.232;9.420;2023-09-07T13:32:47;0.40;;;0.40;;
20699;SDS011;10511;51.232;9.420;2023-09-07T13:35:15;0.40;;;0.40;;
20699;SDS011;10511;51.232;9.420;2023-09-07T13:37:43;0.40;;;0.40;;
20699;SDS011;10511;51.232;9.420;2023-09-07T13:40:10;0.30;;;0.30;;
20699;SDS011;10511;51.232;9.420;2023-09-07T13:42:40;0.40;;;0.40;;
20699;SDS011;10511;51.232;9.420;2023-09-07T13:45:08;0.40;;;0.40;;
20699;SDS011;10511;51.232;9.420;2023-09-07T13:47:35;0.40;;;0.40;;
20699;SDS011;10511;51.232;9.420;2023-09-07T13:50:03;0.40;;;0.40;;
20699;SDS011;10511;51.232;9.420;2023-09-07T13:52:30;0.40;;;0.40;;
20699;SDS011;10511;51.232;9.420;2023-09-07T13:54:59;0.40;;;0.40;;
20699;SDS011;10511;51.232;9.420;2023-09-07T13:57:26;0.40;;;0.40;;
20699;SDS011;10511;51.232;9.420;2023-09-07T13:59:53;0.40;;;0.40;;
20699;SDS011;10511;51.232;9.420;2023-09-07T14:02:20;0.40;;;0.40;;
20699;SDS011;10511;51.232;9.420;2023-09-07T14:04:47;0.40;;;0.40;;
20699;SDS011;10511;51.232;9.420;2023-09-07T14:07:14;0.40;;;0.40;;
20699;SDS011;10511;51.232;9.420;2023-09-07T14:09:41;0.33;;;0.33;;
20699;SDS011;10511;51.232;9.420;2023-09-07T14:12:10;0.40;;;0.40;;
20699;SDS011;10511;51.232;9.420;2023-09-07T14:14:37;0.40;;;0.40;;
20699;SDS011;10511;51.232;9.420;2023-09-07T14:17:05;0.40;;;0.40;;
20699;SDS011;10511;51.232;9.420;2023-09-07T14:19:32;0.40;;;0.40;;
20699;SDS011;10511;51.232;9.420;2023-09-07T14:21:59;0.40;;;0.40;;
20699;SDS011;10511;51.232;9.420;2023-09-07T14:24:26;0.40;;;0.40;;
20699;SDS011;10511;51.232;9.420;2023-09-07T14:26:53;0.40;;;0.40;;
20699;SDS011;10511;51.232;9.420;2023-09-07T14:29:21;0.40;;;0.40;;
20699;SDS011;10511;51.232;9.420;2023-09-07T14:31:48;0.40;;;0.40;;
20699;SDS011;10511;51.232;9.420;2023-09-07T14:34:15;0.40;;;0.40;;
20699;SDS011;10511;51.232;9.420;2023-09-07T14:36:42;0.40;;;0.40;;
20699;SDS011;10511;51.232;9.420;2023-09-07T14:39:09;0.40;;;0.40;;
20699;SDS011;10511;51.232;9.420;2023-09-07T14:41:37;0.40;;;0.40;;
20699;SDS011;10511;51.232;9.420;2023-09-07T14:44:05;0.40;;;0.40;;
20699;SDS011;10511;51.232;9.420;2023-09-07T14:46:36;0.40;;;0.40;;
20699;SDS011;10511;51.232;9.420;2023-09-07T14:49:05;0.40;;;0.40;;
20699;SDS011;10511;51.232;9.420;2023-09-07T14:51:32;0.40;;;0.40;;